createdAt,value
2017-01-12T00:00:07.542Z,20.75
2017-01-12T00:00:48.047Z,20.81
2017-01-12T00:01:28.532Z,20.64
2017-01-12T00:02:09.023Z,20.66
2017-01-12T00:02:49.507Z,20.66
2017-01-12T00:03:30.013Z,20.63
2017-01-12T00:04:10.498Z,20.58
2017-01-12T00:04:50.994Z,20.71
2017-01-12T00:05:31.487Z,20.81
2017-01-12T00:06:11.983Z,20.81
2017-01-12T00:06:52.490Z,20.66
2017-01-12T00:07:32.974Z,20.83
2017-01-12T00:08:13.463Z,20.76
2017-01-12T00:08:53.959Z,20.61
2017-01-12T00:09:34.455Z,20.61
2017-01-12T00:10:14.938Z,20.63
2017-01-12T00:10:55.435Z,20.72
2017-01-12T00:11:35.936Z,20.71
2017-01-12T00:12:16.422Z,20.63
2017-01-12T00:12:56.923Z,20.63
2017-01-12T00:13:37.417Z,20.6
2017-01-12T00:14:17.982Z,20.57
2017-01-12T00:14:58.480Z,20.76
2017-01-12T00:15:38.971Z,20.72
2017-01-12T00:16:19.478Z,20.67
2017-01-12T00:16:59.973Z,20.66
2017-01-12T00:17:40.477Z,20.79
2017-01-12T00:18:20.967Z,20.71
2017-01-12T00:19:01.468Z,20.75
2017-01-12T00:19:41.976Z,20.67
2017-01-12T00:20:22.469Z,20.66
2017-01-12T00:21:02.976Z,20.66
2017-01-12T00:21:43.472Z,20.66
2017-01-12T00:22:23.990Z,20.6
2017-01-12T00:23:04.471Z,20.58
2017-01-12T00:23:44.963Z,20.61
2017-01-12T00:24:25.472Z,20.66
2017-01-12T00:25:05.970Z,20.67
2017-01-12T00:25:46.464Z,20.74
2017-01-12T00:26:26.970Z,20.63
2017-01-12T00:27:07.465Z,20.68
2017-01-12T00:27:47.950Z,20.67
2017-01-12T00:28:28.437Z,20.64
2017-01-12T00:29:08.969Z,20.64
2017-01-12T00:29:49.463Z,20.74
2017-01-12T00:30:29.955Z,20.64
2017-01-12T00:31:10.439Z,20.67
2017-01-12T00:31:50.906Z,20.57
2017-01-12T00:32:31.399Z,20.6
2017-01-12T00:33:11.890Z,20.48
2017-01-12T00:33:52.380Z,20.63
2017-01-12T00:34:32.876Z,20.61
2017-01-12T00:35:13.358Z,20.66
2017-01-12T00:35:53.845Z,20.51
2017-01-12T00:36:34.350Z,20.56
2017-01-12T00:37:14.845Z,20.53
2017-01-12T00:37:55.337Z,20.58
2017-01-12T00:38:35.842Z,20.6
2017-01-12T00:39:16.337Z,20.61
2017-01-12T00:39:56.849Z,20.64
2017-01-12T00:40:37.347Z,20.61
2017-01-12T00:41:17.852Z,20.63
2017-01-12T00:41:58.345Z,20.6
2017-01-12T00:42:38.836Z,20.81
2017-01-12T00:43:19.321Z,20.64
2017-01-12T00:43:59.798Z,20.67
2017-01-12T00:44:40.300Z,20.63
2017-01-12T00:45:20.799Z,20.66
2017-01-12T00:46:01.292Z,20.66
2017-01-12T00:46:41.792Z,20.56
2017-01-12T00:47:22.279Z,20.56
2017-01-12T00:48:02.765Z,20.56
2017-01-12T00:48:43.249Z,20.54
2017-01-12T00:49:23.742Z,20.56
2017-01-12T00:50:04.236Z,20.42
2017-01-12T00:50:44.726Z,20.49
2017-01-12T00:51:25.233Z,20.6
2017-01-12T00:52:05.721Z,20.6
2017-01-12T00:52:46.210Z,20.67
2017-01-12T00:53:26.703Z,20.67
2017-01-12T00:54:07.181Z,20.61
2017-01-12T00:54:47.679Z,20.63
2017-01-12T00:55:28.170Z,20.64
2017-01-12T00:56:08.659Z,20.58
2017-01-12T00:56:49.149Z,20.6
2017-01-12T00:57:29.650Z,20.63
2017-01-12T00:58:10.225Z,20.63
2017-01-12T00:58:50.726Z,20.67
2017-01-12T00:59:31.228Z,20.61
2017-01-12T01:00:11.715Z,20.56
2017-01-12T01:00:52.225Z,20.53
2017-01-12T01:01:32.714Z,20.66
2017-01-12T01:02:13.229Z,20.66
2017-01-12T01:02:53.731Z,20.63
2017-01-12T01:03:34.224Z,20.71
2017-01-12T01:04:14.723Z,20.63
2017-01-12T01:04:55.226Z,20.68
2017-01-12T01:05:35.723Z,20.64
2017-01-12T01:06:16.223Z,20.64
2017-01-12T01:06:56.710Z,20.66
2017-01-12T01:07:37.195Z,20.6
2017-01-12T01:08:17.689Z,20.54
2017-01-12T01:08:58.190Z,20.6
2017-01-12T01:09:38.669Z,20.66
2017-01-12T01:10:19.152Z,20.61
2017-01-12T01:10:59.642Z,20.71
2017-01-12T01:11:40.157Z,20.61
2017-01-12T01:12:20.660Z,20.66
2017-01-12T01:13:01.158Z,20.63
2017-01-12T01:13:41.672Z,20.63
2017-01-12T01:14:22.167Z,20.58
2017-01-12T01:15:02.659Z,20.64
2017-01-12T01:15:43.162Z,20.6
2017-01-12T01:16:23.656Z,20.64
2017-01-12T01:17:04.161Z,20.71
2017-01-12T01:17:44.663Z,20.71
2017-01-12T01:18:25.151Z,20.66
2017-01-12T01:19:05.644Z,20.58
2017-01-12T01:19:46.152Z,20.58
2017-01-12T01:20:26.653Z,20.46
2017-01-12T01:21:07.149Z,20.54
2017-01-12T01:21:47.648Z,20.58
2017-01-12T01:22:28.150Z,20.56
2017-01-12T01:23:08.657Z,20.61
2017-01-12T01:23:49.152Z,20.66
2017-01-12T01:24:29.656Z,20.66
2017-01-12T01:25:10.141Z,20.64
2017-01-12T01:25:50.657Z,20.66
2017-01-12T01:26:31.152Z,20.64
2017-01-12T01:27:11.655Z,20.56
2017-01-12T01:27:52.136Z,20.49
2017-01-12T01:28:32.625Z,20.57
2017-01-12T01:29:13.109Z,20.51
2017-01-12T01:29:53.622Z,20.49
2017-01-12T01:30:34.110Z,20.53
2017-01-12T01:31:14.613Z,20.57
2017-01-12T01:31:55.095Z,20.6
2017-01-12T01:32:35.590Z,20.68
2017-01-12T01:33:16.094Z,20.61
2017-01-12T01:33:56.585Z,20.64
2017-01-12T01:34:37.086Z,20.66
2017-01-12T01:35:17.588Z,20.6
2017-01-12T01:35:58.084Z,20.58
2017-01-12T01:36:38.593Z,20.6
2017-01-12T01:37:19.089Z,20.67
2017-01-12T01:37:59.589Z,20.6
2017-01-12T01:38:40.188Z,20.58
2017-01-12T01:39:20.688Z,20.61
2017-01-12T01:40:01.196Z,20.57
2017-01-12T01:40:41.692Z,20.48
2017-01-12T01:41:22.186Z,20.46
2017-01-12T01:43:09.687Z,20.64
2017-01-12T01:43:50.275Z,20.61
2017-01-12T01:44:30.826Z,20.64
2017-01-12T01:45:11.371Z,20.66
2017-01-12T01:45:51.949Z,20.61
2017-01-12T01:46:32.490Z,20.6
2017-01-12T01:47:13.044Z,20.54
2017-01-12T01:47:53.581Z,20.57
2017-01-12T01:48:34.136Z,20.66
2017-01-12T01:49:14.679Z,20.63
2017-01-12T01:49:55.227Z,20.53
2017-01-12T01:50:35.778Z,20.64
2017-01-12T01:51:16.270Z,20.66
2017-01-12T01:51:56.760Z,20.58
2017-01-12T01:52:37.265Z,20.58
2017-01-12T01:53:17.765Z,20.61
2017-01-12T01:53:58.258Z,20.49
2017-01-12T01:54:38.763Z,20.64
2017-01-12T01:55:19.249Z,20.64
2017-01-12T01:55:59.736Z,20.61
2017-01-12T01:56:40.221Z,20.57
2017-01-12T01:57:20.713Z,20.53
2017-01-12T01:58:01.211Z,20.66
2017-01-12T01:58:41.698Z,20.56
2017-01-12T01:59:22.202Z,20.53
2017-01-12T02:00:02.707Z,20.53
2017-01-12T02:00:43.210Z,20.51
2017-01-12T02:01:23.710Z,20.54
2017-01-12T02:02:04.208Z,20.44
2017-01-12T02:02:44.697Z,20.54
2017-01-12T02:03:25.198Z,20.57
2017-01-12T02:04:05.707Z,20.56
2017-01-12T02:04:46.205Z,20.57
2017-01-12T02:05:26.706Z,20.61
2017-01-12T02:06:07.203Z,20.58
2017-01-12T02:06:47.694Z,20.57
2017-01-12T02:07:28.177Z,20.58
2017-01-12T02:08:08.665Z,20.58
2017-01-12T02:08:49.154Z,20.46
2017-01-12T02:09:29.649Z,20.53
2017-01-12T02:10:10.134Z,20.49
2017-01-12T02:10:50.625Z,20.53
2017-01-12T02:11:31.121Z,20.58
2017-01-12T02:12:11.612Z,20.6
2017-01-12T02:12:52.096Z,20.56
2017-01-12T02:13:32.613Z,20.56
2017-01-12T02:14:13.104Z,20.53
2017-01-12T02:14:53.598Z,20.51
2017-01-12T02:15:34.091Z,20.41
2017-01-12T02:16:14.585Z,20.46
2017-01-12T02:16:55.068Z,20.37
2017-01-12T02:17:35.550Z,20.42
2017-01-12T02:18:16.044Z,20.51
2017-01-12T02:18:56.531Z,20.44
2017-01-12T02:19:37.029Z,20.48
2017-01-12T02:20:17.540Z,20.51
2017-01-12T02:20:58.029Z,20.49
2017-01-12T02:21:38.531Z,20.61
2017-01-12T02:22:19.028Z,20.48
2017-01-12T02:22:59.512Z,20.51
2017-01-12T02:23:39.997Z,20.56
2017-01-12T02:24:20.663Z,20.49
2017-01-12T02:25:01.227Z,20.58
2017-01-12T02:25:41.715Z,20.54
2017-01-12T02:26:22.211Z,20.54
2017-01-12T02:27:02.710Z,20.49
2017-01-12T02:27:43.188Z,20.46
2017-01-12T02:28:23.670Z,20.44
2017-01-12T02:29:04.183Z,20.42
2017-01-12T02:29:44.670Z,20.56
2017-01-12T02:30:25.157Z,20.42
2017-01-12T02:31:05.631Z,20.57
2017-01-12T02:31:46.125Z,20.53
2017-01-12T02:32:26.615Z,20.53
2017-01-12T02:33:07.104Z,20.56
2017-01-12T02:33:47.595Z,20.56
2017-01-12T02:34:28.079Z,20.53
2017-01-12T02:35:08.568Z,20.56
2017-01-12T02:35:49.050Z,20.56
2017-01-12T02:36:29.536Z,20.54
2017-01-12T02:37:10.029Z,20.57
2017-01-12T02:37:50.536Z,20.53
2017-01-12T02:38:31.027Z,20.49
2017-01-12T02:39:11.521Z,20.48
2017-01-12T02:39:52.017Z,20.51
2017-01-12T02:40:32.512Z,20.48
2017-01-12T02:41:13.022Z,20.46
2017-01-12T02:41:53.520Z,20.46
2017-01-12T02:42:34.007Z,20.48
2017-01-12T02:43:14.493Z,20.38
2017-01-12T02:43:54.974Z,20.35
2017-01-12T02:44:35.469Z,20.37
2017-01-12T02:45:15.967Z,20.53
2017-01-12T02:45:56.457Z,20.56
2017-01-12T02:46:36.960Z,20.49
2017-01-12T02:47:17.438Z,20.56
2017-01-12T02:47:57.934Z,20.53
2017-01-12T02:48:38.414Z,20.51
2017-01-12T02:49:18.897Z,20.49
2017-01-12T02:49:59.384Z,20.49
2017-01-12T02:50:39.871Z,20.44
2017-01-12T02:51:20.361Z,20.49
2017-01-12T02:52:00.859Z,20.53
2017-01-12T02:52:41.352Z,20.53
2017-01-12T02:53:21.849Z,20.42
2017-01-12T02:54:02.327Z,20.58
2017-01-12T02:54:42.828Z,20.48
2017-01-12T02:55:23.314Z,20.54
2017-01-12T02:56:03.807Z,20.54
2017-01-12T02:56:44.298Z,20.57
2017-01-12T02:57:24.800Z,20.42
2017-01-12T02:58:05.303Z,20.56
2017-01-12T02:58:45.797Z,20.53
2017-01-12T02:59:26.303Z,20.46
2017-01-12T03:01:13.971Z,20.54
2017-01-12T03:01:54.469Z,20.41
2017-01-12T03:02:34.975Z,20.53
2017-01-12T03:03:15.477Z,20.41
2017-01-12T03:03:55.974Z,20.48
2017-01-12T03:04:36.470Z,20.42
2017-01-12T03:05:16.971Z,20.53
2017-01-12T03:05:57.465Z,20.46
2017-01-12T03:06:37.962Z,20.56
2017-01-12T03:07:18.445Z,20.53
2017-01-12T03:07:58.927Z,20.57
2017-01-12T03:08:39.422Z,20.46
2017-01-12T03:09:19.916Z,20.56
2017-01-12T03:10:00.594Z,20.53
2017-01-12T03:10:41.096Z,20.42
2017-01-12T03:11:21.579Z,20.42
2017-01-12T03:12:02.071Z,20.48
2017-01-12T03:12:42.564Z,20.41
2017-01-12T03:13:23.052Z,20.41
2017-01-12T03:14:03.543Z,20.44
2017-01-12T03:14:44.036Z,20.54
2017-01-12T03:15:24.530Z,20.54
2017-01-12T03:16:05.012Z,20.51
2017-01-12T03:16:45.501Z,20.37
2017-01-12T03:17:25.986Z,20.3
2017-01-12T03:18:06.482Z,20.44
2017-01-12T03:18:46.984Z,20.51
2017-01-12T03:19:27.467Z,20.56
2017-01-12T03:20:07.951Z,20.34
2017-01-12T03:20:48.453Z,20.35
2017-01-12T03:21:28.944Z,20.34
2017-01-12T03:22:09.433Z,20.4
2017-01-12T03:22:49.917Z,20.35
2017-01-12T03:23:30.407Z,20.38
2017-01-12T03:24:10.903Z,20.38
2017-01-12T03:24:51.389Z,20.37
2017-01-12T03:25:31.878Z,20.38
2017-01-12T03:26:12.360Z,20.37
2017-01-12T03:26:52.853Z,20.4
2017-01-12T03:27:33.359Z,20.38
2017-01-12T03:28:13.850Z,20.37
2017-01-12T03:28:54.346Z,20.34
2017-01-12T03:29:34.843Z,20.38
2017-01-12T03:30:15.347Z,20.37
2017-01-12T03:30:55.847Z,20.32
2017-01-12T03:31:36.343Z,20.38
2017-01-12T03:32:16.831Z,20.22
2017-01-12T03:32:57.319Z,20.35
2017-01-12T03:33:37.808Z,20.32
2017-01-12T03:34:18.298Z,20.53
2017-01-12T03:34:58.789Z,20.56
2017-01-12T03:35:39.337Z,20.44
2017-01-12T03:36:19.846Z,20.38
2017-01-12T03:37:00.338Z,20.41
2017-01-12T03:37:40.836Z,20.42
2017-01-12T03:38:21.337Z,20.4
2017-01-12T03:39:01.829Z,20.41
2017-01-12T03:39:42.341Z,20.48
2017-01-12T03:40:22.830Z,20.42
2017-01-12T03:41:03.330Z,20.38
2017-01-12T03:41:43.827Z,20.35
2017-01-12T03:42:24.311Z,20.37
2017-01-12T03:43:04.797Z,20.48
2017-01-12T03:43:45.287Z,20.41
2017-01-12T03:44:25.780Z,20.54
2017-01-12T03:45:06.279Z,20.32
2017-01-12T03:45:46.958Z,20.42
2017-01-12T03:46:27.437Z,20.38
2017-01-12T03:47:07.961Z,20.51
2017-01-12T03:47:48.439Z,20.49
2017-01-12T03:48:28.930Z,20.41
2017-01-12T03:49:09.429Z,20.44
2017-01-12T03:49:49.929Z,20.32
2017-01-12T03:50:30.428Z,20.32
2017-01-12T03:51:10.932Z,20.37
2017-01-12T03:51:51.426Z,20.37
2017-01-12T03:52:31.920Z,20.46
2017-01-12T03:53:12.410Z,20.44
2017-01-12T03:53:52.903Z,20.42
2017-01-12T03:54:33.394Z,20.4
2017-01-12T03:55:13.879Z,20.4
2017-01-12T03:55:54.377Z,20.46
2017-01-12T03:56:34.872Z,20.41
2017-01-12T03:57:15.361Z,20.44
2017-01-12T03:57:55.850Z,20.37
2017-01-12T03:58:36.347Z,20.51
2017-01-12T03:59:16.841Z,20.49
2017-01-12T03:59:57.317Z,20.51
2017-01-12T04:00:37.810Z,20.41
2017-01-12T04:01:18.293Z,20.37
2017-01-12T04:01:58.783Z,20.32
2017-01-12T04:02:39.271Z,20.41
2017-01-12T04:03:19.761Z,20.48
2017-01-12T04:04:00.252Z,20.37
2017-01-12T04:04:40.746Z,20.35
2017-01-12T04:05:21.239Z,20.32
2017-01-12T04:06:01.739Z,20.42
2017-01-12T04:06:42.213Z,20.51
2017-01-12T04:07:22.712Z,20.49
2017-01-12T04:08:03.212Z,20.48
2017-01-12T04:08:43.710Z,20.57
2017-01-12T04:09:24.197Z,20.54
2017-01-12T04:10:04.698Z,20.48
2017-01-12T04:10:45.205Z,20.53
2017-01-12T04:11:25.696Z,20.49
2017-01-12T04:12:06.184Z,20.49
2017-01-12T04:12:46.670Z,20.46
2017-01-12T04:13:27.176Z,20.44
2017-01-12T04:14:07.656Z,20.44
2017-01-12T04:14:48.150Z,20.44
2017-01-12T04:15:28.652Z,20.41
2017-01-12T04:16:09.142Z,20.42
2017-01-12T04:16:49.625Z,20.37
2017-01-12T04:17:30.114Z,20.34
2017-01-12T04:18:10.603Z,20.4
2017-01-12T04:18:51.097Z,20.37
2017-01-12T04:19:31.586Z,20.41
2017-01-12T04:20:12.073Z,20.34
2017-01-12T04:20:52.560Z,20.35
2017-01-12T04:21:33.051Z,20.26
2017-01-12T04:22:13.543Z,20.35
2017-01-12T04:22:54.035Z,20.37
2017-01-12T04:23:34.523Z,20.38
2017-01-12T04:24:15.015Z,20.4
2017-01-12T04:24:55.512Z,20.37
2017-01-12T04:25:36.041Z,20.46
2017-01-12T04:26:16.544Z,20.4
2017-01-12T04:26:57.027Z,20.37
2017-01-12T04:27:37.514Z,20.4
2017-01-12T04:28:18.035Z,20.35
2017-01-12T04:28:58.516Z,20.34
2017-01-12T04:29:39.007Z,20.35
2017-01-12T04:30:19.510Z,20.34
2017-01-12T04:30:59.996Z,20.35
2017-01-12T04:31:40.489Z,20.32
2017-01-12T04:32:20.989Z,20.38
2017-01-12T04:33:01.485Z,20.41
2017-01-12T04:33:41.985Z,20.42
2017-01-12T04:34:22.488Z,20.38
2017-01-12T04:35:02.981Z,20.29
2017-01-12T04:35:43.479Z,20.32
2017-01-12T04:36:23.975Z,20.4
2017-01-12T04:37:04.475Z,20.34
2017-01-12T04:37:44.965Z,20.46
2017-01-12T04:38:25.442Z,20.44
2017-01-12T04:39:05.948Z,20.49
2017-01-12T04:39:46.429Z,20.37
2017-01-12T04:40:26.902Z,20.44
2017-01-12T04:41:07.395Z,20.51
2017-01-12T04:41:47.884Z,20.42
2017-01-12T04:42:28.378Z,20.41
2017-01-12T04:43:08.871Z,20.38
2017-01-12T04:43:49.366Z,20.35
2017-01-12T04:44:29.869Z,20.4
2017-01-12T04:45:10.358Z,20.42
2017-01-12T04:45:50.845Z,20.37
2017-01-12T04:46:31.332Z,20.38
2017-01-12T04:47:11.818Z,20.38
2017-01-12T04:47:52.322Z,20.32
2017-01-12T04:48:32.809Z,20.37
2017-01-12T04:49:13.318Z,20.38
2017-01-12T04:49:53.806Z,20.37
2017-01-12T04:50:34.364Z,20.37
2017-01-12T04:51:14.869Z,20.29
2017-01-12T04:51:55.358Z,20.34
2017-01-12T04:52:35.869Z,20.35
2017-01-12T04:53:16.350Z,20.22
2017-01-12T04:53:56.838Z,20.37
2017-01-12T04:54:37.329Z,20.4
2017-01-12T04:55:17.835Z,20.38
2017-01-12T04:55:58.323Z,20.35
2017-01-12T04:56:38.963Z,20.4
2017-01-12T04:57:19.454Z,20.27
2017-01-12T04:57:59.959Z,20.42
2017-01-12T04:58:40.457Z,20.38
2017-01-12T04:59:20.969Z,20.34
2017-01-12T05:00:01.463Z,20.37
2017-01-12T05:00:41.961Z,20.37
2017-01-12T05:01:22.445Z,20.34
2017-01-12T05:02:02.934Z,20.38
2017-01-12T05:02:43.429Z,20.38
2017-01-12T05:03:23.930Z,20.42
2017-01-12T05:04:04.406Z,20.35
2017-01-12T05:04:44.891Z,20.3
2017-01-12T05:05:25.379Z,20.38
2017-01-12T05:06:05.856Z,20.37
2017-01-12T05:06:46.347Z,20.42
2017-01-12T05:07:26.853Z,20.41
2017-01-12T05:08:07.346Z,20.37
2017-01-12T05:08:47.852Z,20.32
2017-01-12T05:09:28.333Z,20.32
2017-01-12T05:10:08.823Z,20.26
2017-01-12T05:10:49.307Z,20.27
2017-01-12T05:11:29.799Z,20.19
2017-01-12T05:12:10.296Z,20.22
2017-01-12T05:12:50.786Z,20.3
2017-01-12T05:13:31.270Z,20.26
2017-01-12T05:14:11.754Z,20.22
2017-01-12T05:14:52.240Z,20.3
2017-01-12T05:15:32.737Z,20.29
2017-01-12T05:16:13.235Z,20.42
2017-01-12T05:16:53.738Z,20.4
2017-01-12T05:17:34.237Z,20.4
2017-01-12T05:18:14.734Z,20.35
2017-01-12T05:18:55.228Z,20.27
2017-01-12T05:19:35.733Z,20.23
2017-01-12T05:20:16.223Z,20.25
2017-01-12T05:20:56.714Z,20.35
2017-01-12T05:21:37.195Z,20.42
2017-01-12T05:22:17.682Z,20.27
2017-01-12T05:22:58.179Z,20.23
2017-01-12T05:23:38.667Z,20.23
2017-01-12T05:24:19.156Z,20.27
2017-01-12T05:24:59.637Z,20.22
2017-01-12T05:25:40.134Z,20.26
2017-01-12T05:26:20.624Z,20.25
2017-01-12T05:27:01.126Z,20.25
2017-01-12T05:27:41.626Z,20.29
2017-01-12T05:28:22.104Z,20.23
2017-01-12T05:29:02.597Z,20.23
2017-01-12T05:29:43.079Z,20.2
2017-01-12T05:30:23.567Z,20.22
2017-01-12T05:31:04.049Z,20.22
2017-01-12T05:31:44.752Z,20.16
2017-01-12T05:32:25.222Z,20.16
2017-01-12T05:33:05.725Z,20.19
2017-01-12T05:33:46.210Z,20.19
2017-01-12T05:34:26.699Z,20.27
2017-01-12T05:35:07.177Z,20.18
2017-01-12T05:35:47.668Z,20.3
2017-01-12T05:36:28.172Z,20.23
2017-01-12T05:37:08.667Z,20.26
2017-01-12T05:37:49.171Z,20.11
2017-01-12T05:38:29.663Z,20.23
2017-01-12T05:39:10.169Z,20.27
2017-01-12T05:39:50.660Z,20.15
2017-01-12T05:40:31.141Z,20.15
2017-01-12T05:41:11.630Z,20.08
2017-01-12T05:41:52.119Z,20.01
2017-01-12T05:42:33.177Z,20.1
2017-01-12T05:43:13.089Z,20.15
2017-01-12T05:43:53.581Z,20.16
2017-01-12T05:44:34.061Z,20.27
2017-01-12T05:45:14.545Z,20.2
2017-01-12T05:45:55.036Z,20.15
2017-01-12T05:46:35.520Z,20.16
2017-01-12T05:47:16.211Z,20.27
2017-01-12T05:47:56.709Z,20.11
2017-01-12T05:48:37.209Z,20.19
2017-01-12T05:49:17.712Z,20.2
2017-01-12T05:49:58.201Z,20.19
2017-01-12T05:50:38.709Z,20.23
2017-01-12T05:51:19.197Z,20.23
2017-01-12T05:51:59.700Z,20.25
2017-01-12T05:52:40.211Z,20.22
2017-01-12T05:53:20.702Z,20.22
2017-01-12T05:54:01.197Z,20.15
2017-01-12T05:54:41.705Z,20.08
2017-01-12T05:55:22.200Z,20.22
2017-01-12T05:57:14.803Z,20.22
2017-01-12T05:57:55.293Z,20.23
2017-01-12T05:58:35.791Z,20.27
2017-01-12T05:59:16.442Z,20.22
2017-01-12T05:59:56.930Z,20.3
2017-01-12T06:00:37.419Z,20.23
2017-01-12T06:01:17.905Z,20.16
2017-01-12T06:01:58.393Z,20.19
2017-01-12T06:02:38.888Z,20.2
2017-01-12T06:03:19.380Z,20.23
2017-01-12T06:03:59.864Z,20.2
2017-01-12T06:04:40.341Z,20.25
2017-01-12T06:05:20.838Z,20.16
2017-01-12T06:06:01.331Z,20.2
2017-01-12T06:06:41.831Z,20.2
2017-01-12T06:07:22.339Z,20.26
2017-01-12T06:08:02.825Z,20.26
2017-01-12T06:08:43.331Z,20.19
2017-01-12T06:09:23.854Z,20.29
2017-01-12T06:10:04.344Z,20.15
2017-01-12T06:10:44.832Z,20.11
2017-01-12T06:11:25.327Z,20.26
2017-01-12T06:12:05.825Z,20.25
2017-01-12T06:12:46.329Z,20.32
2017-01-12T06:13:26.821Z,20.35
2017-01-12T06:14:07.305Z,20.26
2017-01-12T06:14:47.802Z,20.26
2017-01-12T06:15:28.293Z,20.25
2017-01-12T06:16:08.777Z,20.22
2017-01-12T06:16:49.271Z,20.3
2017-01-12T06:17:29.768Z,20.26
2017-01-12T06:18:10.269Z,20.37
2017-01-12T06:18:50.772Z,20.34
2017-01-12T06:19:31.265Z,20.29
2017-01-12T06:20:11.754Z,20.26
2017-01-12T06:20:52.243Z,20.37
2017-01-12T06:21:32.743Z,20.23
2017-01-12T06:22:13.229Z,20.34
2017-01-12T06:22:53.722Z,20.27
2017-01-12T06:23:34.216Z,20.3
2017-01-12T06:24:14.704Z,20.29
2017-01-12T06:24:55.219Z,20.23
2017-01-12T06:25:35.708Z,20.35
2017-01-12T06:26:16.207Z,20.26
2017-01-12T06:26:56.712Z,20.23
2017-01-12T06:27:37.431Z,20.34
2017-01-12T06:28:17.918Z,20.32
2017-01-12T06:28:58.416Z,20.27
2017-01-12T06:29:38.909Z,20.27
2017-01-12T06:30:19.392Z,20.29
2017-01-12T06:30:59.877Z,20.37
2017-01-12T06:31:40.370Z,20.38
2017-01-12T06:32:20.861Z,20.35
2017-01-12T06:33:01.342Z,20.38
2017-01-12T06:33:41.830Z,20.4
2017-01-12T06:34:22.316Z,20.34
2017-01-12T06:35:02.802Z,20.26
2017-01-12T06:35:43.300Z,20.27
2017-01-12T06:36:23.802Z,20.23
2017-01-12T06:37:04.276Z,20.25
2017-01-12T06:37:44.749Z,20.16
2017-01-12T06:38:25.255Z,20.25
2017-01-12T06:39:05.756Z,20.23
2017-01-12T06:39:46.241Z,20.29
2017-01-12T06:40:26.731Z,20.23
2017-01-12T06:41:07.210Z,20.22
2017-01-12T06:41:47.716Z,20.29
2017-01-12T06:42:28.200Z,20.35
2017-01-12T06:43:08.693Z,20.4
2017-01-12T06:43:49.197Z,20.25
2017-01-12T06:44:29.685Z,20.32
2017-01-12T06:45:10.172Z,20.26
2017-01-12T06:45:50.665Z,20.23
2017-01-12T06:46:31.163Z,20.34
2017-01-12T06:47:11.651Z,20.22
2017-01-12T06:47:52.132Z,20.4
2017-01-12T06:48:32.617Z,20.27
2017-01-12T06:49:13.093Z,20.35
2017-01-12T06:49:53.589Z,20.4
2017-01-12T06:50:34.081Z,20.32
2017-01-12T06:51:14.577Z,20.41
2017-01-12T06:51:55.240Z,20.53
2017-01-12T06:52:35.733Z,20.4
2017-01-12T06:53:16.235Z,20.42
2017-01-12T06:53:56.734Z,20.32
2017-01-12T06:54:37.229Z,20.29
2017-01-12T06:55:17.713Z,20.37
2017-01-12T06:55:58.204Z,20.48
2017-01-12T06:56:38.701Z,20.56
2017-01-12T06:57:19.192Z,20.51
2017-01-12T06:57:59.685Z,20.32
2017-01-12T06:58:40.219Z,20.42
2017-01-12T06:59:20.734Z,20.38
2017-01-12T07:00:01.238Z,20.38
2017-01-12T07:00:41.732Z,20.3
2017-01-12T07:01:22.217Z,20.4
2017-01-12T07:02:02.705Z,20.35
2017-01-12T07:02:43.199Z,20.38
2017-01-12T07:03:23.685Z,20.38
2017-01-12T07:04:04.174Z,20.42
2017-01-12T07:04:44.683Z,20.57
2017-01-12T07:05:25.735Z,20.51
2017-01-12T07:06:06.237Z,20.53
2017-01-12T07:06:46.723Z,20.51
2017-01-12T07:07:27.210Z,20.41
2017-01-12T07:08:08.519Z,20.48
2017-01-12T07:08:49.985Z,20.42
2017-01-12T07:09:30.473Z,20.44
2017-01-12T07:10:10.984Z,20.34
2017-01-12T07:10:51.460Z,20.44
2017-01-12T07:11:31.947Z,20.37
2017-01-12T07:12:12.427Z,20.4
2017-01-12T07:12:52.919Z,20.37
2017-01-12T07:13:33.645Z,20.37
2017-01-12T07:14:14.143Z,20.37
2017-01-12T07:14:54.698Z,20.38
2017-01-12T07:15:35.185Z,20.4
2017-01-12T07:16:15.675Z,20.37
2017-01-12T07:16:56.163Z,20.37
2017-01-12T07:17:36.657Z,20.34
2017-01-12T07:18:17.169Z,20.34
2017-01-12T07:18:57.644Z,20.29
2017-01-12T07:19:38.225Z,20.29
2017-01-12T07:20:18.717Z,20.27
2017-01-12T07:20:59.224Z,20.37
2017-01-12T07:21:39.789Z,20.4
2017-01-12T07:22:20.265Z,20.38
2017-01-12T07:23:00.765Z,20.38
2017-01-12T07:23:41.270Z,20.41
2017-01-12T07:24:21.755Z,20.32
2017-01-12T07:25:02.243Z,20.38
2017-01-12T07:25:42.838Z,20.41
2017-01-12T07:26:23.216Z,20.44
2017-01-12T07:27:03.713Z,20.35
2017-01-12T07:27:44.219Z,20.34
2017-01-12T07:28:24.702Z,20.35
2017-01-12T07:29:05.200Z,20.44
2017-01-12T07:29:45.687Z,20.41
2017-01-12T07:30:26.185Z,20.41
2017-01-12T07:31:06.680Z,20.42
2017-01-12T07:31:47.158Z,20.46
2017-01-12T07:32:27.655Z,20.42
2017-01-12T07:33:08.137Z,20.38
2017-01-12T07:33:48.621Z,20.37
2017-01-12T07:34:29.131Z,20.57
2017-01-12T07:35:09.612Z,20.44
2017-01-12T07:35:50.997Z,20.53
2017-01-12T07:36:30.606Z,20.41
2017-01-12T07:37:11.097Z,20.46
2017-01-12T07:37:51.596Z,20.48
2017-01-12T07:38:32.098Z,20.4
2017-01-12T07:39:12.606Z,20.41
2017-01-12T07:39:53.107Z,20.53
2017-01-12T07:40:33.595Z,20.53
2017-01-12T07:41:14.102Z,20.53
2017-01-12T07:41:54.598Z,20.57
2017-01-12T07:42:35.081Z,20.51
2017-01-12T07:43:15.575Z,20.57
2017-01-12T07:43:56.059Z,20.56
2017-01-12T07:44:36.551Z,20.53
2017-01-12T07:45:17.044Z,20.64
2017-01-12T07:45:57.565Z,20.64
2017-01-12T07:46:38.038Z,20.61
2017-01-12T07:47:18.549Z,20.61
2017-01-12T07:47:59.025Z,20.63
2017-01-12T07:48:39.535Z,20.61
2017-01-12T07:49:20.051Z,20.63
2017-01-12T07:50:00.543Z,20.72
2017-01-12T07:50:41.040Z,20.81
2017-01-12T07:51:21.535Z,20.76
2017-01-12T07:52:02.881Z,20.81
2017-01-12T07:52:43.379Z,20.81
2017-01-12T07:53:23.861Z,20.76
2017-01-12T07:54:04.349Z,20.83
2017-01-12T07:56:02.045Z,20.85
2017-01-12T07:56:42.525Z,20.91
2017-01-12T07:57:23.033Z,20.94
2017-01-12T07:58:03.515Z,20.94
2017-01-12T07:58:44.002Z,21.01
2017-01-12T07:59:24.726Z,21.09
2017-01-12T08:00:05.206Z,20.93
2017-01-12T08:00:45.720Z,20.96
2017-01-12T08:01:26.308Z,20.94
2017-01-12T08:02:06.821Z,20.96
2017-01-12T08:02:47.334Z,21.03
2017-01-12T08:03:27.819Z,21.01
2017-01-12T08:04:08.308Z,21.13
2017-01-12T08:04:48.791Z,21.19
2017-01-12T08:05:29.258Z,20.98
2017-01-12T08:06:09.764Z,21.03
2017-01-12T08:06:50.250Z,21.15
2017-01-12T08:07:30.741Z,21.06
2017-01-12T08:08:11.216Z,21.06
2017-01-12T08:08:51.705Z,21.12
2017-01-12T08:09:32.208Z,21.04
2017-01-12T08:10:12.721Z,21.08
2017-01-12T08:10:53.211Z,21.06
2017-01-12T08:11:33.723Z,21.09
2017-01-12T08:12:14.225Z,21
2017-01-12T08:12:54.705Z,21.04
2017-01-12T08:13:35.192Z,21.19
2017-01-12T08:14:15.681Z,21.06
2017-01-12T08:14:56.165Z,21.18
2017-01-12T08:15:36.676Z,21.25
2017-01-12T08:16:17.157Z,21.19
2017-01-12T08:16:57.638Z,21.21
2017-01-12T08:17:38.126Z,21.21
2017-01-12T08:18:18.622Z,21.19
2017-01-12T08:18:59.116Z,21.19
2017-01-12T08:19:39.609Z,21.23
2017-01-12T08:20:20.117Z,21.21
2017-01-12T08:21:00.595Z,21.21
2017-01-12T08:21:41.098Z,21.25
2017-01-12T08:22:21.596Z,21.18
2017-01-12T08:23:02.226Z,21.27
2017-01-12T08:23:42.723Z,21.25
2017-01-12T08:24:23.223Z,21.34
2017-01-12T08:25:03.697Z,21.37
2017-01-12T08:25:44.170Z,21.48
2017-01-12T08:26:24.662Z,21.37
2017-01-12T08:27:05.142Z,21.33
2017-01-12T08:27:45.640Z,21.36
2017-01-12T08:28:26.137Z,21.37
2017-01-12T08:29:06.641Z,21.36
2017-01-12T08:29:47.131Z,21.3
2017-01-12T08:30:27.627Z,21.21
2017-01-12T08:31:08.113Z,21.37
2017-01-12T08:31:48.594Z,21.34
2017-01-12T08:32:29.081Z,21.27
2017-01-12T08:33:09.580Z,21.3
2017-01-12T08:33:50.082Z,21.36
2017-01-12T08:34:30.590Z,21.33
2017-01-12T08:35:11.080Z,21.3
2017-01-12T08:35:51.588Z,21.4
2017-01-12T08:36:32.073Z,21.4
2017-01-12T08:37:12.558Z,21.38
2017-01-12T08:37:53.041Z,21.51
2017-01-12T08:38:33.550Z,21.55
2017-01-12T08:39:14.031Z,21.49
2017-01-12T08:39:54.536Z,21.51
2017-01-12T08:40:35.019Z,21.41
2017-01-12T08:41:15.515Z,21.41
2017-01-12T08:41:56.003Z,21.38
2017-01-12T08:42:36.502Z,21.41
2017-01-12T08:43:17.002Z,21.51
2017-01-12T08:43:57.481Z,21.48
2017-01-12T08:44:38.048Z,21.41
2017-01-12T08:45:18.569Z,21.41
2017-01-12T08:45:59.074Z,21.41
2017-01-12T08:46:39.580Z,21.34
2017-01-12T08:47:20.078Z,21.36